createdAt,value
2023-04-13T00:01:27.695Z,50.40
2023-04-13T00:03:54.974Z,50.40
2023-04-13T00:06:22.824Z,50.40
2023-04-13T00:08:50.461Z,50.50
2023-04-13T00:11:17.965Z,50.40
2023-04-13T00:13:47.575Z,50.40
2023-04-13T00:16:15.498Z,50.40
2023-04-13T00:18:42.437Z,50.40
2023-04-13T00:21:09.223Z,50.40
2023-04-13T00:23:36.696Z,50.40
2023-04-13T00:26:03.638Z,50.40
2023-04-13T00:28:30.430Z,50.40
2023-04-13T00:30:57.259Z,50.30
2023-04-13T00:33:24.125Z,50.30
2023-04-13T00:35:50.870Z,50.40
2023-04-13T00:38:18.220Z,50.40
2023-04-13T00:40:45.206Z,50.40
2023-04-13T00:43:12.278Z,50.30
2023-04-13T00:45:39.178Z,50.40
2023-04-13T00:48:07.712Z,50.40
2023-04-13T00:50:34.500Z,50.40
2023-04-13T00:53:01.970Z,50.40
2023-04-13T00:55:28.853Z,50.40
2023-04-13T00:57:55.509Z,50.30
2023-04-13T01:00:24.529Z,50.30
2023-04-13T01:02:52.681Z,50.40
2023-04-13T01:05:19.533Z,50.30
2023-04-13T01:07:52.974Z,50.30
2023-04-13T01:10:22.004Z,50.30
2023-04-13T01:13:07.698Z,50.20
2023-04-13T01:15:37.056Z,50.20
2023-04-13T01:18:07.409Z,50.10
2023-04-13T01:20:35.366Z,50.10
2023-04-13T01:23:04.537Z,50.10
2023-04-13T01:25:38.117Z,50.10
2023-04-13T01:28:07.409Z,50.10
2023-04-13T01:30:34.366Z,50.10
2023-04-13T01:33:02.332Z,50.10
2023-04-13T01:35:33.354Z,50.10
2023-04-13T01:38:06.853Z,50.20
2023-04-13T01:40:35.022Z,50.20
2023-04-13T01:43:01.694Z,50.20
2023-04-13T01:45:29.317Z,50.20
2023-04-13T01:48:05.880Z,50.10
2023-04-13T01:50:42.495Z,50.20
2023-04-13T01:53:29.713Z,50.20
2023-04-13T01:55:56.370Z,50.20
2023-04-13T01:58:23.508Z,50.20
2023-04-13T02:00:50.476Z,50.10
2023-04-13T02:03:17.950Z,50.10
2023-04-13T02:05:44.882Z,50.10
2023-04-13T02:08:11.570Z,50.10
2023-04-13T02:10:39.457Z,50.10
2023-04-13T02:13:06.173Z,50.10
2023-04-13T02:15:37.283Z,50.10
2023-04-13T02:18:04.842Z,50.10
2023-04-13T02:20:34.890Z,50.10
2023-04-13T02:23:01.585Z,50.10
2023-04-13T02:25:28.510Z,50.00
2023-04-13T02:27:55.154Z,50.10
2023-04-13T02:30:21.828Z,50.00
2023-04-13T02:32:49.564Z,50.00
2023-04-13T02:35:16.509Z,50.00
2023-04-13T02:37:43.190Z,50.00
2023-04-13T02:40:12.878Z,50.00
2023-04-13T02:42:39.544Z,50.00
2023-04-13T02:45:07.411Z,50.00
2023-04-13T02:47:34.308Z,50.00
2023-04-13T02:50:01.481Z,50.00
2023-04-13T02:52:28.230Z,50.00
2023-04-13T02:54:54.921Z,50.00
2023-04-13T02:57:22.468Z,50.00
2023-04-13T02:59:49.494Z,50.00
2023-04-13T03:02:17.268Z,50.00
2023-04-13T03:04:44.377Z,50.00
2023-04-13T03:07:14.281Z,50.00
2023-04-13T03:09:41.258Z,50.00
2023-04-13T03:12:07.923Z,50.00
2023-04-13T03:14:36.790Z,50.00
2023-04-13T03:17:04.495Z,49.90
2023-04-13T03:19:31.694Z,49.90
2023-04-13T03:21:58.509Z,50.50
2023-04-13T03:24:28.193Z,49.80
2023-04-13T03:26:56.992Z,49.90
2023-04-13T03:29:24.429Z,49.80
2023-04-13T03:31:51.539Z,49.80
2023-04-13T03:34:18.516Z,49.80
2023-04-13T03:36:45.894Z,49.80
2023-04-13T03:39:12.597Z,49.80
2023-04-13T03:41:39.349Z,49.80
2023-04-13T03:44:07.418Z,49.80
2023-04-13T03:46:37.407Z,49.80
2023-04-13T03:49:06.364Z,49.80
2023-04-13T03:51:39.127Z,49.80
2023-04-13T03:54:05.864Z,49.80
2023-04-13T03:56:38.705Z,49.80
2023-04-13T03:59:05.395Z,49.90
2023-04-13T04:01:32.410Z,49.80
2023-04-13T04:03:59.337Z,49.90
2023-04-13T04:06:32.357Z,49.80
2023-04-13T04:08:59.018Z,49.80
2023-04-13T04:11:31.951Z,49.80
2023-04-13T04:13:59.233Z,49.80
2023-04-13T04:16:26.312Z,49.80
2023-04-13T04:18:53.026Z,50.50
2023-04-13T04:21:21.776Z,49.80
2023-04-13T04:23:48.895Z,49.80
2023-04-13T04:26:15.578Z,49.80
2023-04-13T04:28:42.274Z,49.80
2023-04-13T04:31:11.919Z,49.80
2023-04-13T04:33:38.722Z,49.80
2023-04-13T04:36:10.186Z,49.70
2023-04-13T04:38:36.948Z,49.70
2023-04-13T04:41:09.730Z,49.70
2023-04-13T04:43:37.683Z,49.70
2023-04-13T04:46:04.937Z,49.70
2023-04-13T04:48:32.082Z,49.60
2023-04-13T04:51:00.052Z,49.70
2023-04-13T04:53:27.247Z,49.70
2023-04-13T04:55:54.283Z,49.60
2023-04-13T04:58:21.015Z,49.60
2023-04-13T05:00:48.076Z,49.50
2023-04-13T05:03:14.941Z,49.70
2023-04-13T05:05:42.597Z,49.60
2023-04-13T05:08:09.459Z,49.60
2023-04-13T05:10:36.202Z,49.70
2023-04-13T05:13:03.021Z,49.60
2023-04-13T05:15:29.673Z,49.60
2023-04-13T05:17:56.388Z,49.70
2023-04-13T05:20:23.155Z,49.70
2023-04-13T05:22:49.888Z,49.70
2023-04-13T05:25:22.581Z,49.60
2023-04-13T05:27:49.376Z,49.60
2023-04-13T05:30:16.107Z,49.60
2023-04-13T05:32:43.803Z,49.60
2023-04-13T05:35:10.761Z,49.60
2023-04-13T05:37:40.029Z,49.50
2023-04-13T05:40:13.591Z,49.60
2023-04-13T05:42:41.622Z,49.50
2023-04-13T05:45:09.770Z,49.40
2023-04-13T05:47:38.333Z,49.50
2023-04-13T05:50:05.472Z,49.40
2023-04-13T05:52:32.223Z,49.40
2023-04-13T05:54:58.869Z,49.40
2023-04-13T05:57:25.637Z,49.40
2023-04-13T05:59:53.381Z,49.50
2023-04-13T06:02:20.875Z,49.40
2023-04-13T06:04:48.864Z,49.50
2023-04-13T06:07:16.559Z,49.50
2023-04-13T06:09:43.245Z,50.20
2023-04-13T06:12:09.975Z,49.40
2023-04-13T06:14:36.897Z,49.40
2023-04-13T06:17:03.705Z,49.40
2023-04-13T06:19:30.532Z,49.40
2023-04-13T06:21:57.316Z,49.40
2023-04-13T06:24:24.450Z,49.30
2023-04-13T06:26:51.628Z,49.20
2023-04-13T06:29:18.389Z,49.40
2023-04-13T06:31:45.054Z,49.50
2023-04-13T06:34:11.764Z,49.50
2023-04-13T06:36:40.551Z,49.50
2023-04-13T06:39:08.495Z,49.50
2023-04-13T06:41:35.185Z,49.40
2023-04-13T06:44:02.253Z,49.40
2023-04-13T06:46:29.052Z,49.40
2023-04-13T06:48:56.176Z,49.50
2023-04-13T06:51:22.842Z,49.40
2023-04-13T06:53:50.112Z,49.40
2023-04-13T06:56:16.752Z,49.50
2023-04-13T06:58:43.433Z,49.50
2023-04-13T07:01:10.785Z,49.50
2023-04-13T07:03:37.764Z,49.40
2023-04-13T07:06:05.485Z,49.50
2023-04-13T07:08:35.095Z,49.50
2023-04-13T07:11:02.724Z,49.60
2023-04-13T07:13:29.442Z,49.60
2023-04-13T07:15:56.330Z,49.60
2023-04-13T07:18:23.059Z,49.60
2023-04-13T07:20:49.766Z,49.50
2023-04-13T07:23:19.419Z,49.60
2023-04-13T07:25:46.091Z,49.50
2023-04-13T07:28:12.849Z,49.40
2023-04-13T07:30:43.358Z,49.50
2023-04-13T07:33:10.053Z,49.40
2023-04-13T07:35:37.377Z,49.50
2023-04-13T07:38:04.290Z,49.60
2023-04-13T07:40:31.236Z,49.60
2023-04-13T07:42:58.077Z,49.70
2023-04-13T07:45:24.736Z,49.90
2023-04-13T07:47:53.639Z,49.80
2023-04-13T07:50:22.613Z,49.80
2023-04-13T07:52:49.430Z,49.70
2023-04-13T07:55:16.333Z,49.70
2023-04-13T07:57:43.015Z,49.50
2023-04-13T08:00:10.561Z,49.50
2023-04-13T08:02:37.742Z,49.50
2023-04-13T08:05:08.250Z,49.50
2023-04-13T08:07:35.163Z,49.50
2023-04-13T08:10:04.110Z,49.40
2023-04-13T08:12:31.394Z,49.40
2023-04-13T08:14:58.092Z,49.40
2023-04-13T08:17:27.826Z,49.30
2023-04-13T08:19:54.570Z,49.30
2023-04-13T08:22:27.293Z,49.20
2023-04-13T08:24:54.694Z,49.20
2023-04-13T08:27:21.412Z,49.30
2023-04-13T08:29:48.389Z,49.20
2023-04-13T08:32:15.073Z,49.20
2023-04-13T08:34:42.198Z,49.20
2023-04-13T08:37:08.850Z,49.20
2023-04-13T08:39:36.765Z,49.20
2023-04-13T08:42:05.442Z,49.80
2023-04-13T08:44:32.788Z,49.10
2023-04-13T08:46:59.757Z,49.10
2023-04-13T08:49:32.818Z,49.10
2023-04-13T08:52:05.929Z,48.70
2023-04-13T08:54:35.169Z,48.70
2023-04-13T08:57:02.759Z,49.00
2023-04-13T08:59:29.740Z,48.70
2023-04-13T09:01:56.738Z,48.80
2023-04-13T09:04:25.281Z,49.00
2023-04-13T09:06:55.851Z,49.00
2023-04-13T09:09:22.782Z,48.80
2023-04-13T09:11:51.746Z,48.70
2023-04-13T09:14:22.210Z,48.80
2023-04-13T09:16:49.432Z,48.70
2023-04-13T09:19:16.170Z,49.10
2023-04-13T09:21:46.037Z,49.30
2023-04-13T09:24:12.833Z,48.80
2023-04-13T09:26:40.439Z,48.80
2023-04-13T09:29:15.204Z,49.10
2023-04-13T09:31:45.238Z,49.00
2023-04-13T09:34:12.722Z,48.70
2023-04-13T09:36:49.667Z,48.80
2023-04-13T09:39:28.288Z,48.80
2023-04-13T09:41:58.353Z,48.70
2023-04-13T09:44:29.861Z,49.00
2023-04-13T09:47:00.489Z,49.00
2023-04-13T09:49:36.764Z,49.10
2023-04-13T09:52:03.445Z,49.10
2023-04-13T09:54:30.137Z,49.10
2023-04-13T09:56:59.871Z,49.10
2023-04-13T09:59:27.409Z,49.20
2023-04-13T10:01:54.950Z,49.20
2023-04-13T10:04:21.997Z,49.10
2023-04-13T10:06:49.164Z,49.20
2023-04-13T10:09:15.901Z,49.10
2023-04-13T10:11:46.093Z,49.10
2023-04-13T10:14:23.320Z,49.20
2023-04-13T10:16:59.177Z,49.20
2023-04-13T10:19:29.761Z,49.20
2023-04-13T10:21:56.779Z,49.20
2023-04-13T10:24:24.270Z,49.10
2023-04-13T10:26:52.934Z,49.10
2023-04-13T10:29:27.224Z,49.10
2023-04-13T10:31:54.880Z,49.10
2023-04-13T10:34:25.633Z,49.10
2023-04-13T10:36:55.381Z,49.00
2023-04-13T10:39:25.804Z,49.00
2023-04-13T10:42:08.787Z,49.10
2023-04-13T10:44:43.715Z,48.90
2023-04-13T10:47:11.481Z,49.00
2023-04-13T10:49:38.442Z,48.90
2023-04-13T10:52:05.157Z,48.70
2023-04-13T10:54:31.867Z,48.60
2023-04-13T10:57:02.732Z,48.30
2023-04-13T10:59:53.104Z,48.10
2023-04-13T11:02:30.433Z,48.20
2023-04-13T11:04:57.375Z,48.20
2023-04-13T11:07:25.519Z,48.20
2023-04-13T11:09:55.191Z,48.50
2023-04-13T11:12:25.025Z,48.60
2023-04-13T11:14:51.839Z,48.70
2023-04-13T11:17:19.329Z,48.70
2023-04-13T11:19:50.625Z,48.60
2023-04-13T11:22:22.623Z,49.00
2023-04-13T11:24:49.934Z,49.00
2023-04-13T11:27:27.352Z,49.00
2023-04-13T11:30:05.065Z,49.00
2023-04-13T11:32:34.214Z,49.40
2023-04-13T11:35:10.802Z,49.60
2023-04-13T11:37:38.474Z,49.70
2023-04-13T11:40:17.353Z,50.10
2023-04-13T11:42:45.245Z,50.00
2023-04-13T11:45:22.030Z,50.20
2023-04-13T11:47:51.809Z,50.20
2023-04-13T11:50:20.853Z,50.30
2023-04-13T11:52:47.815Z,50.50
2023-04-13T11:55:23.472Z,50.60
2023-04-13T11:57:51.391Z,50.70
2023-04-13T12:00:20.216Z,50.70
2023-04-13T12:03:01.320Z,50.80
2023-04-13T12:05:30.245Z,50.80
2023-04-13T12:07:58.483Z,51.00
2023-04-13T12:10:36.087Z,50.80
2023-04-13T12:16:05.463Z,51.20
2023-04-13T12:18:49.593Z,51.10
2023-04-13T12:21:17.066Z,51.20
2023-04-13T12:23:57.266Z,51.20
2023-04-13T12:29:01.278Z,51.20
2023-04-13T12:31:32.590Z,51.40
2023-04-13T12:33:59.495Z,51.30
2023-04-13T12:36:28.665Z,51.20
2023-04-13T12:38:55.487Z,51.40
2023-04-13T12:41:22.304Z,51.30
2023-04-13T12:43:48.973Z,51.60
2023-04-13T12:46:15.852Z,51.50
2023-04-13T12:48:42.698Z,51.60
2023-04-13T12:51:09.459Z,51.80
2023-04-13T12:53:36.176Z,51.60
2023-04-13T12:56:02.865Z,51.70
2023-04-13T12:58:29.824Z,51.90
2023-04-13T13:00:56.598Z,52.00
2023-04-13T13:03:23.525Z,52.00
2023-04-13T13:05:50.221Z,51.90
2023-04-13T13:08:17.285Z,51.80
2023-04-13T13:10:43.954Z,51.60
2023-04-13T13:13:11.352Z,52.00
2023-04-13T13:15:38.165Z,52.00
2023-04-13T13:18:06.808Z,51.90
2023-04-13T13:20:33.544Z,52.00
2023-04-13T13:23:00.478Z,51.90
2023-04-13T13:25:27.223Z,52.00
2023-04-13T13:28:13.121Z,51.30
2023-04-13T13:30:40.855Z,52.10
2023-04-13T13:33:07.726Z,52.00
2023-04-13T13:35:34.758Z,52.00
2023-04-13T13:38:01.519Z,52.00
2023-04-13T13:40:28.323Z,52.00
2023-04-13T13:42:55.124Z,52.00
2023-04-13T13:45:21.934Z,52.10
2023-04-13T13:47:54.807Z,52.10
2023-04-13T13:50:21.827Z,52.20
2023-04-13T13:52:55.652Z,52.00
2023-04-13T13:55:28.879Z,52.10
2023-04-13T13:58:02.273Z,52.00
2023-04-13T14:00:29.323Z,52.20
2023-04-13T14:02:56.170Z,52.40
2023-04-13T14:05:22.944Z,52.30
2023-04-13T14:07:49.824Z,52.60
2023-04-13T14:10:16.767Z,52.40
2023-04-13T14:12:44.204Z,52.30
2023-04-13T14:15:12.495Z,52.10
2023-04-13T14:17:39.429Z,52.00
2023-04-13T14:20:09.575Z,51.70
2023-04-13T14:22:36.682Z,51.40
2023-04-13T14:25:04.131Z,51.20
2023-04-13T14:27:30.984Z,51.30
2023-04-13T14:29:57.692Z,51.20
2023-04-13T14:32:25.618Z,51.40
2023-04-13T14:34:53.507Z,51.60
2023-04-13T14:37:20.288Z,51.60
2023-04-13T14:39:47.106Z,51.20
2023-04-13T14:42:13.894Z,51.50
2023-04-13T14:44:44.159Z,52.10
2023-04-13T14:47:15.763Z,52.10
2023-04-13T14:49:43.203Z,52.30
2023-04-13T14:52:09.899Z,52.30
2023-04-13T14:54:36.850Z,52.30
2023-04-13T14:57:04.760Z,52.10
2023-04-13T14:59:31.629Z,52.50
2023-04-13T15:01:58.418Z,52.20
2023-04-13T15:04:25.335Z,52.50
2023-04-13T15:06:54.469Z,52.40
2023-04-13T15:09:22.014Z,52.50
2023-04-13T15:11:49.365Z,52.40
2023-04-13T15:14:16.122Z,52.50
2023-04-13T15:16:42.918Z,52.60
2023-04-13T15:19:09.696Z,52.60
2023-04-13T15:21:36.517Z,52.60
2023-04-13T15:24:03.328Z,52.50
2023-04-13T15:26:30.207Z,52.50
2023-04-13T15:28:57.072Z,52.40
2023-04-13T15:31:23.810Z,52.60
2023-04-13T15:33:50.690Z,52.50
2023-04-13T15:36:19.086Z,52.50
2023-04-13T15:38:45.922Z,52.60
2023-04-13T15:41:12.668Z,52.50
2023-04-13T15:43:41.218Z,52.70
2023-04-13T15:46:09.033Z,52.60
2023-04-13T15:48:35.813Z,52.70
2023-04-13T15:51:02.545Z,52.70
2023-04-13T15:53:29.406Z,52.70
2023-04-13T15:55:56.297Z,52.80
2023-04-13T15:58:23.392Z,52.80
2023-04-13T16:00:57.450Z,52.80
2023-04-13T16:03:24.383Z,52.80
2023-04-13T16:05:51.768Z,52.80
2023-04-13T16:08:19.320Z,52.80
2023-04-13T16:10:46.788Z,52.80
2023-04-13T16:13:19.632Z,52.80
2023-04-13T16:15:51.347Z,52.80
2023-04-13T16:18:18.639Z,52.80
2023-04-13T16:20:46.750Z,52.80
2023-04-13T16:23:15.569Z,52.80
2023-04-13T16:25:42.414Z,52.80
2023-04-13T16:28:10.223Z,52.80
2023-04-13T16:30:37.538Z,52.80
2023-04-13T16:33:10.698Z,53.00
2023-04-13T16:35:38.445Z,52.90
2023-04-13T16:38:05.810Z,52.90
2023-04-13T16:40:32.508Z,52.80
2023-04-13T16:43:00.664Z,53.00
2023-04-13T16:45:28.285Z,52.90
2023-04-13T16:47:55.121Z,52.80
2023-04-13T16:50:21.933Z,52.90
2023-04-13T16:52:48.591Z,52.90
2023-04-13T16:55:16.764Z,52.90
2023-04-13T16:57:43.459Z,52.80
2023-04-13T17:00:11.537Z,52.80
2023-04-13T17:02:38.863Z,52.80
2023-04-13T17:05:09.250Z,52.80
2023-04-13T17:07:42.691Z,52.80
2023-04-13T17:10:09.634Z,52.80
2023-04-13T17:12:36.619Z,52.80
2023-04-13T17:15:10.114Z,52.80
2023-04-13T17:17:38.419Z,52.80
2023-04-13T17:20:11.609Z,52.70
2023-04-13T17:22:38.537Z,52.80
2023-04-13T17:25:05.684Z,52.80
2023-04-13T17:27:32.419Z,52.90
2023-04-13T17:29:59.192Z,52.80
2023-04-13T17:32:26.424Z,52.50
2023-04-13T17:34:53.110Z,52.50
2023-04-13T17:37:19.753Z,52.20
2023-04-13T17:39:47.759Z,51.90
2023-04-13T17:42:15.224Z,51.70
2023-04-13T17:44:42.176Z,51.80
2023-04-13T17:47:09.065Z,51.60
2023-04-13T17:49:36.395Z,51.80
2023-04-13T17:52:03.081Z,51.70
2023-04-13T17:54:29.754Z,51.70
2023-04-13T17:56:56.586Z,51.90
2023-04-13T17:59:23.372Z,52.10
2023-04-13T18:01:50.479Z,52.00
2023-04-13T18:04:17.476Z,52.10
2023-04-13T18:06:44.323Z,52.20
2023-04-13T18:09:14.326Z,52.30
2023-04-13T18:11:41.094Z,52.30
2023-04-13T18:14:09.152Z,52.30
2023-04-13T18:16:36.246Z,52.50
2023-04-13T18:19:03.081Z,52.40
2023-04-13T18:21:30.080Z,52.50
2023-04-13T18:23:57.082Z,52.50
2023-04-13T18:26:24.044Z,52.50
2023-04-13T18:28:50.951Z,52.60
2023-04-13T18:31:17.698Z,52.60
2023-04-13T18:33:44.657Z,52.60
2023-04-13T18:36:15.976Z,52.70
2023-04-13T18:38:43.030Z,52.70
2023-04-13T18:41:09.924Z,52.60
2023-04-13T18:43:36.787Z,52.80
2023-04-13T18:46:03.594Z,52.70
2023-04-13T18:48:30.843Z,53.40
2023-04-13T18:50:57.586Z,52.80
2023-04-13T18:53:24.798Z,52.80
2023-04-13T18:55:52.307Z,52.80
2023-04-13T18:58:22.060Z,52.80
2023-04-13T19:00:48.945Z,52.80
2023-04-13T19:03:15.773Z,52.80
2023-04-13T19:05:42.732Z,52.80
2023-04-13T19:08:10.003Z,52.80
2023-04-13T19:10:36.733Z,52.70
2023-04-13T19:13:04.215Z,52.80
2023-04-13T19:15:30.934Z,52.80
2023-04-13T19:17:57.744Z,52.80
2023-04-13T19:20:24.630Z,52.80
2023-04-13T19:22:51.496Z,52.80
2023-04-13T19:25:18.145Z,52.80
2023-04-13T19:27:45.758Z,52.80
2023-04-13T19:30:15.979Z,52.80
2023-04-13T19:32:43.546Z,52.80
2023-04-13T19:35:16.507Z,52.80
2023-04-13T19:37:43.252Z,52.80
2023-04-13T19:40:10.245Z,52.80
2023-04-13T19:42:41.421Z,52.80
2023-04-13T19:45:14.350Z,52.80
2023-04-13T19:47:41.184Z,52.80
2023-04-13T19:50:08.746Z,52.80
2023-04-13T19:52:35.540Z,52.80
2023-04-13T19:55:02.265Z,52.70
2023-04-13T19:57:29.246Z,52.80
2023-04-13T19:59:56.184Z,52.80
2023-04-13T20:02:23.171Z,52.70
2023-04-13T20:04:50.216Z,52.70
2023-04-13T20:07:17.665Z,52.80
2023-04-13T20:09:44.456Z,52.70
2023-04-13T20:12:12.099Z,52.70
2023-04-13T20:14:41.937Z,52.70
2023-04-13T20:17:11.277Z,52.70
2023-04-13T20:19:38.045Z,52.70
2023-04-13T20:22:10.850Z,52.70
2023-04-13T20:24:37.503Z,52.70
2023-04-13T20:27:05.150Z,52.80
2023-04-13T20:29:31.822Z,52.70
2023-04-13T20:31:58.532Z,52.70
2023-04-13T20:34:27.966Z,52.80
2023-04-13T20:36:56.427Z,52.80
2023-04-13T20:39:25.697Z,52.80
2023-04-13T20:41:55.918Z,52.70
2023-04-13T20:44:25.920Z,52.70
2023-04-13T20:46:54.766Z,52.70
2023-04-13T20:49:24.815Z,52.70
2023-04-13T20:51:53.801Z,52.60
2023-04-13T20:54:20.480Z,52.60
2023-04-13T20:56:48.511Z,52.70
2023-04-13T20:59:15.551Z,52.60
2023-04-13T21:01:42.362Z,52.70
2023-04-13T21:04:09.596Z,52.60
2023-04-13T21:06:42.399Z,52.50
2023-04-13T21:09:12.261Z,52.60
2023-04-13T21:11:41.492Z,52.50
2023-04-13T21:14:08.209Z,52.60
2023-04-13T21:16:37.239Z,52.50
2023-04-13T21:19:03.942Z,52.60
2023-04-13T21:21:30.624Z,52.50
2023-04-13T21:23:57.398Z,52.40
2023-04-13T21:26:24.093Z,52.50
2023-04-13T21:28:50.953Z,52.40
2023-04-13T21:31:17.622Z,52.40
2023-04-13T21:33:44.993Z,52.40
2023-04-13T21:38:41.634Z,52.40
2023-04-13T21:41:18.221Z,52.30
2023-04-13T21:43:45.060Z,52.30
2023-04-13T21:46:12.089Z,52.30
2023-04-13T21:48:45.280Z,52.30
2023-04-13T21:51:12.046Z,52.30
2023-04-13T21:53:38.792Z,52.20
2023-04-13T21:56:05.783Z,52.40
2023-04-13T21:58:42.148Z,52.30
2023-04-13T22:01:08.923Z,52.40
2023-04-13T22:03:39.520Z,52.30
2023-04-13T22:06:07.042Z,52.30
2023-04-13T22:08:33.779Z,52.40
2023-04-13T22:11:00.658Z,52.30
2023-04-13T22:13:27.452Z,52.30
2023-04-13T22:15:54.166Z,52.40
2023-04-13T22:18:20.905Z,52.30
2023-04-13T22:20:47.609Z,52.30
2023-04-13T22:23:14.339Z,52.30
2023-04-13T22:25:41.764Z,52.30
2023-04-13T22:28:08.448Z,52.20
2023-04-13T22:30:35.988Z,52.20
2023-04-13T22:33:02.695Z,52.20
2023-04-13T22:35:29.412Z,52.10
2023-04-13T22:37:56.083Z,52.20
2023-04-13T22:40:22.735Z,52.10
2023-04-13T22:42:49.405Z,52.10
2023-04-13T22:45:16.265Z,52.00
2023-04-13T22:47:42.979Z,52.10
2023-04-13T22:50:09.813Z,52.10
2023-04-13T22:52:36.488Z,52.00
2023-04-13T22:55:03.323Z,52.00
2023-04-13T22:57:30.046Z,52.00
2023-04-13T22:59:56.731Z,52.00
2023-04-13T23:02:26.634Z,52.00
2023-04-13T23:04:53.429Z,52.00
2023-04-13T23:07:20.129Z,52.00
2023-04-13T23:09:46.972Z,52.00
2023-04-13T23:12:13.613Z,52.00
2023-04-13T23:14:40.479Z,52.00
2023-04-13T23:17:13.336Z,52.00
2023-04-13T23:19:40.435Z,52.00
2023-04-13T23:22:13.274Z,52.00
2023-04-13T23:24:39.947Z,51.90
2023-04-13T23:27:06.655Z,52.00
2023-04-13T23:29:33.395Z,52.00
2023-04-13T23:32:00.284Z,52.00
2023-04-13T23:34:27.078Z,51.90
2023-04-13T23:36:53.774Z,52.00
2023-04-13T23:39:22.232Z,51.90
2023-04-13T23:41:48.930Z,51.90
2023-04-13T23:44:15.853Z,52.00
2023-04-13T23:46:43.528Z,52.00
2023-04-13T23:49:16.347Z,52.00
2023-04-13T23:51:46.153Z,52.00
2023-04-13T23:54:12.809Z,52.00
2023-04-13T23:56:39.519Z,52.00
2023-04-13T23:59:06.219Z,51.90
